Řízení letového provozu České republiky  
Aktualizace dat:  07.04.2020 02:46:26 UTC English version
   METEO Zobrazení stránky:  07.04.2020 02:47:52 UTC  
vysvětlivky
METAR EDDB 070220Z 18004KT CAVOK 06/00 Q1025 NOSIG=
METAR EDDC 070220Z 15009KT CAVOK 10/M01 Q1027=
METAR EDDE 070220Z 25010KT CAVOK 06/01 Q1027=
METAR EDDF 070220Z 08004KT CAVOK 06/01 Q1027 NOSIG=
METAR EDDM 070220Z 25002KT CAVOK 01/M01 Q1028 NOSIG=
METAR EDDN 070220Z 11005KT CAVOK 04/M00 Q1028=
METAR EDDP 070220Z 18006KT 160V220 CAVOK 08/02 Q1026 NOSIG=
METAR EDDT 070220Z 15002KT CAVOK 09/01 Q1025=
METAR EDQM NIL
METAR EPBY 070230Z 16006KT CAVOK 07/M02 Q1027=
METAR EPGD 070230Z 20006KT CAVOK 10/M02 Q1026=
METAR EPKK 070230Z VRB01KT CAVOK 02/M03 Q1032=
METAR EPKT 070230Z 09004KT CAVOK 00/M03 Q1031=
METAR EPLL 070230Z 18003KT 140V240 CAVOK 09/M04 Q1030=
METAR EPPO 070230Z 16005KT CAVOK 08/M02 Q1027=
METAR EPRZ 070230Z 07002KT CAVOK 01/M04 Q1032=
METAR EPWA 070230Z 14004KT CAVOK 04/M04 Q1031 NOSIG=
METAR EPWR 070230Z 13008KT CAVOK 05/M03 Q1028=
METAR LHBP 070230Z 05002KT CAVOK 03/M03 Q1033 NOSIG=
METAR LHSM 070215Z AUTO 08005KT CAVOK 03/M01 Q1032=
METAR LKBC 070230Z AUTO 09004KT CAVOK 05/M04 Q1028=
METAR LKCV 070230Z 12006KT CAVOK 09/M05 Q1029 NOSIG RMK BLU BLU=
METAR LKKB 070230Z 10004KT CAVOK 06/M03 Q1028 RMK BLU=
METAR LKKU NIL
METAR LKKV 070200Z 00000KT CAVOK 03/M01 Q1028 RMK REG QNH 1025=
METAR LKLN 070230Z AUTO 00000KT CAVOK 03/01 Q1028=
METAR LKMT 070230Z 27004KT CAVOK 03/M03 Q1031 NOSIG RMK REG QNH 1025=
METAR LKNA 070230Z 11008KT CAVOK 07/M06 Q1029 RMK BLU=
METAR LKPD 070230Z 04004KT CAVOK 07/M04 Q1029 RMK BLU=
METAR LKPJ 070230Z AUTO 29002KT CAVOK 01/M04 Q1031=
METAR LKPR 070230Z 12004KT CAVOK 07/M03 Q1028 NOSIG RMK REG QNH 1025=
METAR LKTB 070230Z 08008KT CAVOK 07/M05 Q1031 NOSIG RMK REG QNH 1025=
METAR LKVO NIL
METAR LOWI 070220Z AUTO 29002KT 9999 NCD 05/00 Q1030=
METAR LOWL 070220Z AUTO VRB01KT 9999 NCD 07/M01 Q1028=
METAR LOWS 070220Z AUTO 14011KT 9999 NCD 09/M00 Q1028=
METAR LOWW 070220Z 14011KT CAVOK 08/M05 Q1031 NOSIG=
METAR LZIB 070230Z 04007KT CAVOK 02/M04 Q1032=
METAR LZKZ 070230Z 36003KT CAVOK 02/M04 Q1033=
METAR LZMC NIL
METAR LZPP 070230Z AUTO 01004KT 9999 NCD 02/M04 Q1032=
METAR LZSL 070230Z /////KT CAVOK M01/M04 Q1034=
METAR LZTT 070230Z 18003KT CAVOK 01/M05 Q1032=
METAR LZZI 070230Z VRB01KT CAVOK M00/M03 Q1033=